createdAt,value
2017-02-23T00:00:31.145Z,0
2017-02-23T00:01:31.262Z,0
2017-02-23T00:02:30.720Z,0
2017-02-23T00:03:31.473Z,0
2017-02-23T00:04:31.570Z,0
2017-02-23T00:05:31.585Z,0
2017-02-23T00:06:31.256Z,0
2017-02-23T00:07:30.753Z,0
2017-02-23T00:08:31.547Z,0
2017-02-23T00:09:31.202Z,0
2017-02-23T00:10:31.259Z,0
2017-02-23T00:11:31.610Z,0
2017-02-23T00:12:31.584Z,0
2017-02-23T00:13:31.222Z,0
2017-02-23T00:14:31.633Z,0
2017-02-23T00:15:31.251Z,0
2017-02-23T00:16:31.754Z,0
2017-02-23T00:17:31.646Z,0
2017-02-23T00:18:31.224Z,0
2017-02-23T00:19:31.694Z,0
2017-02-23T00:20:31.322Z,0
2017-02-23T00:21:30.938Z,0
2017-02-23T00:22:31.288Z,0
2017-02-23T00:23:31.631Z,0
2017-02-23T00:24:31.692Z,0
2017-02-23T00:25:31.663Z,0
2017-02-23T00:26:31.322Z,0
2017-02-23T00:27:33.641Z,0
2017-02-23T00:28:31.771Z,0
2017-02-23T00:29:31.769Z,0
2017-02-23T00:30:31.744Z,0
2017-02-23T00:31:31.756Z,0
2017-02-23T00:32:31.345Z,0
2017-02-23T00:33:31.815Z,0
2017-02-23T00:34:31.424Z,0
2017-02-23T00:35:31.718Z,0
2017-02-23T00:36:31.879Z,0
2017-02-23T00:37:31.637Z,0
2017-02-23T00:38:31.825Z,0
2017-02-23T00:39:31.807Z,0
2017-02-23T00:40:31.753Z,0
2017-02-23T00:41:31.449Z,0
2017-02-23T00:42:31.776Z,0
2017-02-23T00:43:31.486Z,0
2017-02-23T00:44:31.469Z,0
2017-02-23T00:45:32.526Z,0
2017-02-23T00:46:31.459Z,0
2017-02-23T00:47:31.795Z,0
2017-02-23T00:48:31.581Z,0
2017-02-23T00:49:31.069Z,0
2017-02-23T00:50:31.455Z,0
2017-02-23T00:51:31.909Z,0
2017-02-23T00:52:31.892Z,0
2017-02-23T00:53:31.969Z,0
2017-02-23T00:54:31.505Z,0
2017-02-23T00:55:31.846Z,0
2017-02-23T00:56:31.903Z,0
2017-02-23T00:57:31.930Z,0
2017-02-23T00:58:31.903Z,0
2017-02-23T00:59:32.916Z,0
2017-02-23T01:00:31.522Z,0
2017-02-23T01:01:31.485Z,0
2017-02-23T01:02:31.944Z,0
2017-02-23T01:03:31.888Z,0
2017-02-23T01:04:32.024Z,0
2017-02-23T01:05:32.007Z,0
2017-02-23T01:06:31.913Z,0
2017-02-23T01:07:31.915Z,0
2017-02-23T01:08:32.011Z,0
2017-02-23T01:09:32.037Z,0
2017-02-23T01:10:31.982Z,0
2017-02-23T01:11:31.209Z,0
2017-02-23T01:12:31.997Z,0
2017-02-23T01:13:32.004Z,0
2017-02-23T01:14:31.677Z,0
2017-02-23T01:15:31.566Z,0
2017-02-23T01:16:31.677Z,0
2017-02-23T01:17:32.091Z,0
2017-02-23T01:18:31.986Z,0
2017-02-23T01:19:31.994Z,0
2017-02-23T01:20:32.046Z,0
2017-02-23T01:21:31.712Z,0
2017-02-23T01:22:31.712Z,0
2017-02-23T01:23:32.491Z,0
2017-02-23T01:24:32.061Z,0
2017-02-23T01:25:32.127Z,0
2017-02-23T01:26:32.073Z,0
2017-02-23T01:27:32.062Z,0
2017-02-23T01:28:31.743Z,0
2017-02-23T01:29:31.660Z,0
2017-02-23T01:30:32.176Z,0
2017-02-23T01:31:32.231Z,0
2017-02-23T01:32:31.819Z,0
2017-02-23T01:33:32.082Z,0
2017-02-23T01:34:32.092Z,0
2017-02-23T01:35:31.705Z,0
2017-02-23T01:36:31.765Z,0
2017-02-23T01:37:32.204Z,0
2017-02-23T01:38:32.166Z,0
2017-02-23T01:39:31.715Z,0
2017-02-23T01:40:32.165Z,0
2017-02-23T01:41:31.875Z,0
2017-02-23T01:42:32.240Z,0
2017-02-23T01:43:32.142Z,0
2017-02-23T01:44:32.249Z,0
2017-02-23T01:45:31.868Z,0
2017-02-23T01:46:32.606Z,0
2017-02-23T01:47:32.209Z,0
2017-02-23T01:48:32.269Z,0
2017-02-23T01:49:31.890Z,0
2017-02-23T01:50:32.187Z,0
2017-02-23T01:51:31.874Z,0
2017-02-23T01:52:32.186Z,0
2017-02-23T01:53:32.150Z,0
2017-02-23T01:54:32.270Z,0
2017-02-23T01:55:31.807Z,0
2017-02-23T01:56:32.037Z,0
2017-02-23T01:57:31.896Z,0
2017-02-23T01:58:32.227Z,0
2017-02-23T01:59:31.949Z,0
2017-02-23T02:00:32.293Z,0
2017-02-23T02:01:32.261Z,0
2017-02-23T02:02:31.538Z,0
2017-02-23T02:03:32.324Z,0
2017-02-23T02:04:31.483Z,0
2017-02-23T02:05:31.986Z,0
2017-02-23T02:06:32.338Z,0
2017-02-23T02:07:31.937Z,0
2017-02-23T02:08:32.353Z,0
2017-02-23T02:09:32.320Z,0
2017-02-23T02:10:31.249Z,0
2017-02-23T02:11:32.620Z,0
2017-02-23T02:12:32.419Z,0
2017-02-23T02:13:31.953Z,0
2017-02-23T02:14:32.461Z,0
2017-02-23T02:15:32.327Z,0
2017-02-23T02:16:32.339Z,0
2017-02-23T02:17:32.059Z,0
2017-02-23T02:18:32.359Z,0
2017-02-23T02:19:31.979Z,0
2017-02-23T02:20:32.768Z,0
2017-02-23T02:21:32.063Z,0
2017-02-23T02:22:32.430Z,0
2017-02-23T02:23:32.039Z,0
2017-02-23T02:24:32.502Z,0
2017-02-23T02:25:32.770Z,0
2017-02-23T02:26:31.620Z,0
2017-02-23T02:27:32.162Z,0
2017-02-23T02:28:32.490Z,0
2017-02-23T02:29:32.488Z,0
2017-02-23T02:30:32.201Z,0
2017-02-23T02:31:32.503Z,0
2017-02-23T02:32:32.459Z,0
2017-02-23T02:33:32.108Z,0
2017-02-23T02:34:32.258Z,0
2017-02-23T02:35:32.533Z,0
2017-02-23T02:36:32.132Z,0
2017-02-23T02:37:32.084Z,0
2017-02-23T02:38:32.472Z,0
2017-02-23T02:39:32.590Z,0
2017-02-23T02:40:32.643Z,0
2017-02-23T02:41:32.632Z,0
2017-02-23T02:42:32.239Z,0
2017-02-23T02:43:32.523Z,0
2017-02-23T02:44:32.232Z,0
2017-02-23T02:45:32.198Z,0
2017-02-23T02:46:31.790Z,0
2017-02-23T02:47:32.672Z,0
2017-02-23T02:48:32.247Z,0
2017-02-23T02:49:32.212Z,0
2017-02-23T02:50:32.675Z,0
2017-02-23T02:51:32.260Z,0
2017-02-23T02:52:32.665Z,0
2017-02-23T02:53:32.274Z,0
2017-02-23T02:54:32.186Z,0
2017-02-23T02:55:32.591Z,0
2017-02-23T02:56:32.638Z,0
2017-02-23T02:57:32.700Z,0
2017-02-23T02:58:32.995Z,0
2017-02-23T02:59:32.272Z,0
2017-02-23T03:00:32.726Z,0
2017-02-23T03:01:32.719Z,0
2017-02-23T03:02:32.390Z,0
2017-02-23T03:03:32.733Z,0
2017-02-23T03:04:32.709Z,0
2017-02-23T03:05:32.718Z,0
2017-02-23T03:06:32.659Z,0
2017-02-23T03:07:33.008Z,0
2017-02-23T03:08:32.783Z,0
2017-02-23T03:09:32.724Z,0
2017-02-23T03:10:32.682Z,0
2017-02-23T03:11:32.693Z,0
2017-02-23T03:12:32.783Z,0
2017-02-23T03:13:32.368Z,0
2017-02-23T03:14:32.766Z,0
2017-02-23T03:15:32.754Z,0
2017-02-23T03:16:32.879Z,0
2017-02-23T03:17:32.855Z,0
2017-02-23T03:18:32.721Z,0
2017-02-23T03:19:32.438Z,0
2017-02-23T03:20:32.834Z,0
2017-02-23T03:21:32.441Z,0
2017-02-23T03:22:32.803Z,0
2017-02-23T03:23:32.419Z,0
2017-02-23T03:24:32.071Z,0
2017-02-23T03:25:33.215Z,0
2017-02-23T03:26:32.841Z,0
2017-02-23T03:27:32.426Z,0
2017-02-23T03:28:32.820Z,0
2017-02-23T03:29:32.816Z,0
2017-02-23T03:30:32.905Z,0
2017-02-23T03:31:32.761Z,0
2017-02-23T03:32:32.988Z,0
2017-02-23T03:33:32.133Z,0
2017-02-23T03:34:32.079Z,0
2017-02-23T03:35:32.881Z,0
2017-02-23T03:36:32.853Z,0
2017-02-23T03:37:32.611Z,0
2017-02-23T03:38:32.103Z,0
2017-02-23T03:39:32.538Z,0
2017-02-23T03:40:32.522Z,0
2017-02-23T03:41:32.471Z,0
2017-02-23T03:42:32.973Z,0
2017-02-23T03:43:32.540Z,0
2017-02-23T03:44:32.981Z,0
2017-02-23T03:45:32.895Z,0
2017-02-23T03:46:32.941Z,0
2017-02-23T03:47:33.427Z,0
2017-02-23T03:48:32.909Z,0
2017-02-23T03:49:32.922Z,0
2017-02-23T03:50:32.537Z,0
2017-02-23T03:51:32.978Z,0
2017-02-23T03:52:33.064Z,0
2017-02-23T03:53:33.107Z,0
2017-02-23T03:54:32.622Z,0
2017-02-23T03:55:33.033Z,0
2017-02-23T03:56:32.222Z,0
2017-02-23T03:57:32.576Z,0
2017-02-23T03:58:32.965Z,0
2017-02-23T03:59:32.657Z,0
2017-02-23T04:00:33.032Z,0
2017-02-23T04:01:33.044Z,0
2017-02-23T04:02:32.265Z,0
2017-02-23T04:03:33.056Z,0
2017-02-23T04:04:32.811Z,0
2017-02-23T04:05:33.138Z,0
2017-02-23T04:06:33.136Z,0
2017-02-23T04:07:32.696Z,0
2017-02-23T04:08:32.773Z,0
2017-02-23T04:09:32.250Z,0
2017-02-23T04:10:33.641Z,0
2017-02-23T04:11:33.361Z,0
2017-02-23T04:12:32.763Z,0
2017-02-23T04:13:33.071Z,0
2017-02-23T04:14:33.121Z,0
2017-02-23T04:15:32.431Z,0
2017-02-23T04:16:32.738Z,0
2017-02-23T04:17:32.309Z,0
2017-02-23T04:18:33.302Z,0
2017-02-23T04:19:33.155Z,0
2017-02-23T04:20:33.115Z,0
2017-02-23T04:21:33.231Z,0
2017-02-23T04:22:33.176Z,0
2017-02-23T04:23:33.133Z,0
2017-02-23T04:24:33.180Z,0
2017-02-23T04:25:32.405Z,0
2017-02-23T04:26:32.506Z,0
2017-02-23T04:27:32.900Z,0
2017-02-23T04:28:33.467Z,0
2017-02-23T04:29:33.254Z,0
2017-02-23T04:30:32.771Z,0
2017-02-23T04:31:33.326Z,0
2017-02-23T04:32:33.339Z,0
2017-02-23T04:33:33.261Z,0
2017-02-23T04:34:32.855Z,0
2017-02-23T04:35:32.472Z,0
2017-02-23T04:36:33.205Z,0
2017-02-23T04:37:32.912Z,0
2017-02-23T04:38:33.016Z,0
2017-02-23T04:39:32.836Z,0
2017-02-23T04:40:33.320Z,0
2017-02-23T04:41:32.462Z,0
2017-02-23T04:42:32.946Z,0
2017-02-23T04:43:33.363Z,0
2017-02-23T04:44:33.315Z,0
2017-02-23T04:45:33.296Z,0
2017-02-23T04:46:32.874Z,0
2017-02-23T04:47:32.943Z,0
2017-02-23T04:48:32.951Z,0
2017-02-23T04:49:33.002Z,0
2017-02-23T04:50:33.350Z,0
2017-02-23T04:51:33.298Z,0
2017-02-23T04:52:33.353Z,0
2017-02-23T04:53:33.299Z,0
2017-02-23T04:54:33.313Z,0
2017-02-23T04:55:32.940Z,0
2017-02-23T04:56:33.450Z,0
2017-02-23T04:57:33.334Z,0
2017-02-23T04:58:33.414Z,0
2017-02-23T04:59:33.401Z,0
2017-02-23T05:00:33.403Z,0
2017-02-23T05:01:33.057Z,0
2017-02-23T05:02:32.971Z,0
2017-02-23T05:03:33.832Z,0
2017-02-23T05:04:32.988Z,0
2017-02-23T05:05:33.443Z,0
2017-02-23T05:06:33.336Z,0
2017-02-23T05:07:33.010Z,0
2017-02-23T05:08:32.716Z,0
2017-02-23T05:09:33.456Z,0
2017-02-23T05:10:33.510Z,0
2017-02-23T05:11:33.435Z,0
2017-02-23T05:12:33.027Z,0
2017-02-23T05:13:33.461Z,0
2017-02-23T05:14:33.483Z,0
2017-02-23T05:15:33.112Z,0
2017-02-23T05:16:32.755Z,0
2017-02-23T05:17:33.507Z,0
2017-02-23T05:18:33.448Z,0
2017-02-23T05:19:33.525Z,0
2017-02-23T05:20:33.076Z,0
2017-02-23T05:21:33.092Z,0
2017-02-23T05:22:33.082Z,0
2017-02-23T05:23:33.545Z,0
2017-02-23T05:24:32.753Z,0
2017-02-23T05:25:33.549Z,0
2017-02-23T05:26:33.224Z,0
2017-02-23T05:27:33.115Z,0
2017-02-23T05:28:33.649Z,0
2017-02-23T05:29:33.529Z,0
2017-02-23T05:30:33.553Z,0
2017-02-23T05:31:33.900Z,0
2017-02-23T05:32:33.698Z,0
2017-02-23T05:33:33.621Z,0
2017-02-23T05:34:33.560Z,0
2017-02-23T05:35:33.627Z,0
2017-02-23T05:36:33.216Z,0
2017-02-23T05:37:33.673Z,0
2017-02-23T05:38:33.633Z,0
2017-02-23T05:39:33.250Z,0
2017-02-23T05:40:33.644Z,0
2017-02-23T05:41:33.695Z,0
2017-02-23T05:42:33.266Z,0
2017-02-23T05:43:33.326Z,0
2017-02-23T05:44:33.331Z,0
2017-02-23T05:45:33.527Z,0
2017-02-23T05:46:33.633Z,0
2017-02-23T05:47:33.303Z,0
2017-02-23T05:48:32.917Z,0
2017-02-23T05:49:33.942Z,0
2017-02-23T05:50:33.861Z,0
2017-02-23T05:51:33.721Z,0
2017-02-23T05:52:33.811Z,0
2017-02-23T05:53:33.722Z,0
2017-02-23T05:54:33.660Z,0
2017-02-23T05:55:33.373Z,0
2017-02-23T05:56:33.314Z,0
2017-02-23T05:57:33.311Z,0
2017-02-23T05:58:33.769Z,0
2017-02-23T05:59:33.758Z,0
2017-02-23T06:00:33.787Z,0
2017-02-23T06:01:33.816Z,0
2017-02-23T06:02:33.043Z,0
2017-02-23T06:03:33.327Z,0
2017-02-23T06:04:33.405Z,0
2017-02-23T06:05:33.407Z,0
2017-02-23T06:06:33.824Z,0
2017-02-23T06:07:33.869Z,0
2017-02-23T06:08:33.789Z,0
2017-02-23T06:09:33.811Z,0
2017-02-23T06:10:33.889Z,0
2017-02-23T06:11:33.881Z,0
2017-02-23T06:12:33.789Z,0
2017-02-23T06:13:34.084Z,0
2017-02-23T06:14:33.817Z,0
2017-02-23T06:15:33.533Z,0
2017-02-23T06:16:33.902Z,0
2017-02-23T06:17:33.471Z,0
2017-02-23T06:18:33.987Z,0
2017-02-23T06:19:33.491Z,0
2017-02-23T06:20:33.876Z,0
2017-02-23T06:21:33.569Z,0
2017-02-23T06:22:33.849Z,0
2017-02-23T06:23:33.865Z,0
2017-02-23T06:24:33.936Z,0
2017-02-23T06:25:33.612Z,0
2017-02-23T06:26:33.963Z,0
2017-02-23T06:27:33.477Z,0
2017-02-23T06:28:33.586Z,0
2017-02-23T06:29:33.906Z,0
2017-02-23T06:30:33.896Z,0
2017-02-23T06:31:33.998Z,0
2017-02-23T06:32:33.906Z,0
2017-02-23T06:33:34.058Z,0
2017-02-23T06:34:33.573Z,0
2017-02-23T06:35:34.084Z,0
2017-02-23T06:36:33.195Z,0
2017-02-23T06:37:33.930Z,0
2017-02-23T06:38:33.712Z,0
2017-02-23T06:39:33.961Z,0
2017-02-23T06:40:33.689Z,0
2017-02-23T06:41:34.162Z,0
2017-02-23T06:42:34.069Z,0
2017-02-23T06:43:34.049Z,0
2017-02-23T06:44:34.018Z,0
2017-02-23T06:45:32.862Z,0
2017-02-23T06:46:34.056Z,0
2017-02-23T06:47:33.733Z,0
2017-02-23T06:48:34.062Z,0
2017-02-23T06:49:35.175Z,0
2017-02-23T06:50:34.139Z,0
2017-02-23T06:51:34.020Z,0
2017-02-23T06:52:34.199Z,0
2017-02-23T06:53:33.702Z,0
2017-02-23T06:54:33.295Z,0
2017-02-23T06:55:34.044Z,0
2017-02-23T06:56:33.701Z,0
2017-02-23T06:57:33.758Z,0
2017-02-23T06:58:33.779Z,0
2017-02-23T06:59:33.779Z,0
2017-02-23T07:00:33.778Z,0
2017-02-23T07:01:33.691Z,0
2017-02-23T07:02:34.102Z,0
2017-02-23T07:03:33.797Z,0
2017-02-23T07:04:34.492Z,0
2017-02-23T07:05:33.776Z,0
2017-02-23T07:06:34.171Z,0
2017-02-23T07:07:33.835Z,0
2017-02-23T07:08:34.119Z,0
2017-02-23T07:09:34.172Z,0
2017-02-23T07:10:33.876Z,0
2017-02-23T07:11:33.509Z,0
2017-02-23T07:12:33.809Z,0
2017-02-23T07:13:33.456Z,0
2017-02-23T07:14:33.838Z,0
2017-02-23T07:15:33.761Z,0
2017-02-23T07:16:34.222Z,0
2017-02-23T07:17:34.219Z,0
2017-02-23T07:18:34.232Z,0
2017-02-23T07:19:34.311Z,0
2017-02-23T07:20:34.355Z,0
2017-02-23T07:21:34.861Z,0
2017-02-23T07:22:33.873Z,0
2017-02-23T07:23:33.883Z,0
2017-02-23T07:24:33.155Z,0
2017-02-23T07:25:33.488Z,0
2017-02-23T07:26:33.050Z,0
2017-02-23T07:27:33.888Z,0
2017-02-23T07:28:33.851Z,0
2017-02-23T07:29:34.345Z,0
2017-02-23T07:30:33.908Z,0
2017-02-23T07:31:33.942Z,0
2017-02-23T07:32:34.359Z,0
2017-02-23T07:33:34.389Z,0
2017-02-23T07:34:34.360Z,0
2017-02-23T07:35:34.290Z,0
2017-02-23T07:36:34.345Z,0
2017-02-23T07:37:34.295Z,0
2017-02-23T07:38:33.527Z,0
2017-02-23T07:39:34.367Z,0
2017-02-23T07:40:33.986Z,0
2017-02-23T07:41:34.429Z,0
2017-02-23T07:42:34.427Z,0
2017-02-23T07:43:34.067Z,0
2017-02-23T07:44:34.395Z,0
2017-02-23T07:45:34.368Z,0
2017-02-23T07:46:34.454Z,0
2017-02-23T07:47:34.464Z,0
2017-02-23T07:48:34.432Z,0
2017-02-23T07:49:34.429Z,0
2017-02-23T07:50:34.481Z,0
2017-02-23T07:51:33.996Z,0
2017-02-23T07:52:34.486Z,0
2017-02-23T07:53:34.445Z,0
2017-02-23T07:54:34.168Z,0
2017-02-23T07:55:34.464Z,0
2017-02-23T07:56:34.078Z,5
2017-02-23T07:57:34.428Z,5
2017-02-23T07:58:34.424Z,5
2017-02-23T07:59:34.437Z,5
2017-02-23T08:00:34.550Z,5
2017-02-23T08:01:34.452Z,5
2017-02-23T08:02:34.563Z,5
2017-02-23T08:03:34.117Z,5
2017-02-23T08:04:34.530Z,5
2017-02-23T08:05:34.612Z,5
2017-02-23T08:06:34.586Z,5
2017-02-23T08:07:33.701Z,5
2017-02-23T08:08:33.817Z,5
2017-02-23T08:09:34.594Z,5
2017-02-23T08:10:34.517Z,5
2017-02-23T08:11:34.251Z,5
2017-02-23T08:12:34.149Z,5
2017-02-23T08:13:34.586Z,5
2017-02-23T08:14:34.210Z,5
2017-02-23T08:15:34.260Z,5
2017-02-23T08:16:34.592Z,5
2017-02-23T08:17:34.627Z,5
2017-02-23T08:18:34.351Z,5
2017-02-23T08:19:34.644Z,5
2017-02-23T08:20:34.278Z,5
2017-02-23T08:21:34.313Z,5
2017-02-23T08:22:34.579Z,5
2017-02-23T08:23:34.259Z,5
2017-02-23T08:24:34.227Z,5
2017-02-23T08:25:34.625Z,5
2017-02-23T08:26:34.378Z,5
2017-02-23T08:27:34.716Z,5
2017-02-23T08:28:34.284Z,5
2017-02-23T08:29:34.709Z,5
2017-02-23T08:30:33.911Z,5
2017-02-23T08:31:35.042Z,5
2017-02-23T08:32:33.863Z,5
2017-02-23T08:33:34.373Z,5
2017-02-23T08:34:34.779Z,10
2017-02-23T08:35:34.683Z,5
2017-02-23T08:36:34.449Z,10
2017-02-23T08:37:34.026Z,10
2017-02-23T08:38:34.757Z,10
2017-02-23T08:39:34.361Z,10
2017-02-23T08:40:34.314Z,10
2017-02-23T08:41:34.290Z,10
2017-02-23T08:42:34.542Z,10
2017-02-23T08:43:34.849Z,5
2017-02-23T08:44:34.393Z,5
2017-02-23T08:45:34.744Z,5
2017-02-23T08:46:34.790Z,10
2017-02-23T08:47:34.369Z,10
2017-02-23T08:48:34.474Z,10
2017-02-23T08:49:34.391Z,15
2017-02-23T08:50:34.819Z,15
2017-02-23T08:51:34.826Z,15
2017-02-23T08:52:34.896Z,15
2017-02-23T08:53:34.080Z,15
2017-02-23T08:54:34.856Z,15
2017-02-23T08:55:34.485Z,10
2017-02-23T08:56:34.207Z,10
2017-02-23T08:57:35.046Z,10
2017-02-23T08:58:34.607Z,10
2017-02-23T08:59:34.505Z,10
2017-02-23T09:00:34.450Z,10
2017-02-23T09:01:34.886Z,10
2017-02-23T09:02:34.605Z,10
2017-02-23T09:03:34.185Z,5
2017-02-23T09:04:34.684Z,5
2017-02-23T09:05:34.102Z,5
2017-02-23T09:06:36.105Z,5
2017-02-23T09:07:34.619Z,5
2017-02-23T09:08:34.960Z,5
2017-02-23T09:09:35.014Z,5
2017-02-23T09:10:35.029Z,5
2017-02-23T09:11:34.595Z,5
2017-02-23T09:12:34.538Z,5
2017-02-23T09:13:34.702Z,5
2017-02-23T09:14:34.949Z,5
2017-02-23T09:15:35.134Z,5
2017-02-23T09:16:34.480Z,5
2017-02-23T09:17:35.030Z,10
2017-02-23T09:18:34.584Z,10
2017-02-23T09:19:35.096Z,10
2017-02-23T09:20:35.254Z,10
2017-02-23T09:21:35.059Z,10
2017-02-23T09:22:35.061Z,10
2017-02-23T09:23:35.020Z,10
2017-02-23T09:24:35.079Z,10
2017-02-23T09:25:35.139Z,5
2017-02-23T09:26:35.099Z,10
2017-02-23T09:27:35.163Z,10
2017-02-23T09:28:34.803Z,5
2017-02-23T09:29:35.123Z,5
2017-02-23T09:30:34.758Z,5
2017-02-23T09:31:35.138Z,5
2017-02-23T09:32:35.092Z,5
2017-02-23T09:33:35.731Z,5
2017-02-23T09:34:33.970Z,5
2017-02-23T09:35:35.172Z,10
2017-02-23T09:36:35.208Z,10
2017-02-23T09:37:34.727Z,10
2017-02-23T09:38:35.229Z,10
2017-02-23T09:39:34.864Z,10
2017-02-23T09:40:35.141Z,10
2017-02-23T09:41:35.240Z,10
2017-02-23T09:42:34.761Z,10
2017-02-23T09:43:53.980Z,10
2017-02-23T09:44:34.897Z,10
2017-02-23T09:45:35.320Z,10
2017-02-23T09:46:35.229Z,10
2017-02-23T09:47:34.864Z,10
2017-02-23T09:48:34.799Z,10
2017-02-23T09:49:34.489Z,10
2017-02-23T09:50:35.259Z,10
2017-02-23T09:51:34.869Z,10
2017-02-23T09:52:35.384Z,10
2017-02-23T09:53:35.254Z,10
2017-02-23T09:54:35.259Z,10
2017-02-23T09:55:35.866Z,10
2017-02-23T09:56:35.405Z,10
2017-02-23T09:57:35.314Z,10
2017-02-23T09:58:35.385Z,10
2017-02-23T09:59:35.330Z,15
2017-02-23T10:00:35.010Z,15
2017-02-23T10:01:35.006Z,15
2017-02-23T10:02:35.356Z,15
2017-02-23T10:03:34.981Z,15
2017-02-23T10:04:35.368Z,15
2017-02-23T10:05:35.432Z,20
2017-02-23T10:06:35.386Z,25
2017-02-23T10:07:34.994Z,25
2017-02-23T10:08:35.518Z,20
2017-02-23T10:09:34.997Z,20
2017-02-23T10:10:34.999Z,20
2017-02-23T10:11:34.964Z,20
2017-02-23T10:12:35.465Z,15
2017-02-23T10:13:35.533Z,15
2017-02-23T10:14:35.413Z,15
2017-02-23T10:15:35.097Z,10
2017-02-23T10:16:35.179Z,10
2017-02-23T10:17:35.496Z,10
2017-02-23T10:18:35.117Z,10
2017-02-23T10:19:35.488Z,10
2017-02-23T10:20:35.508Z,15
2017-02-23T10:21:35.085Z,15
2017-02-23T10:22:35.165Z,15
2017-02-23T10:23:35.547Z,15
2017-02-23T10:24:35.219Z,15
2017-02-23T10:25:35.471Z,15
2017-02-23T10:26:35.140Z,10
2017-02-23T10:27:35.179Z,15
2017-02-23T10:28:35.633Z,15
2017-02-23T10:29:35.549Z,15
2017-02-23T10:30:35.205Z,10
2017-02-23T10:31:35.173Z,10
2017-02-23T10:32:35.557Z,10
2017-02-23T10:33:36.340Z,10
2017-02-23T10:34:35.631Z,10
2017-02-23T10:35:35.513Z,15
2017-02-23T10:36:35.214Z,15
2017-02-23T10:37:35.672Z,10
2017-02-23T10:38:35.228Z,10
2017-02-23T10:39:35.568Z,10
2017-02-23T10:40:35.683Z,10
2017-02-23T10:41:35.343Z,15
2017-02-23T10:42:34.911Z,15
2017-02-23T10:44:35.663Z,15
2017-02-23T10:45:35.715Z,20
2017-02-23T10:46:35.739Z,20
2017-02-23T10:47:34.440Z,20
2017-02-23T10:48:35.680Z,15
2017-02-23T10:49:35.427Z,10
2017-02-23T10:50:35.271Z,15
2017-02-23T10:51:35.305Z,15
2017-02-23T10:52:35.327Z,15
2017-02-23T10:53:35.695Z,15
2017-02-23T10:54:35.790Z,20
2017-02-23T10:55:35.840Z,20
2017-02-23T10:56:35.349Z,20
2017-02-23T10:57:35.754Z,25
2017-02-23T10:58:36.111Z,25
2017-02-23T10:59:35.773Z,30
2017-02-23T11:00:35.776Z,30
2017-02-23T11:01:35.890Z,30
2017-02-23T11:02:35.474Z,30
2017-02-23T11:03:35.795Z,25
2017-02-23T11:04:35.762Z,20
2017-02-23T11:05:35.825Z,25
2017-02-23T11:06:35.364Z,25
2017-02-23T11:07:35.876Z,20
2017-02-23T11:08:35.903Z,25
2017-02-23T11:09:35.837Z,20
2017-02-23T11:10:35.791Z,20
2017-02-23T11:11:35.075Z,25
2017-02-23T11:12:35.845Z,20
2017-02-23T11:13:35.616Z,30
2017-02-23T11:14:35.602Z,25
2017-02-23T11:15:35.911Z,15
2017-02-23T11:16:35.527Z,20
2017-02-23T11:17:35.857Z,15
2017-02-23T11:18:35.455Z,20
2017-02-23T11:19:35.940Z,20
2017-02-23T11:20:36.017Z,20
2017-02-23T11:21:36.033Z,20
2017-02-23T11:22:35.930Z,20
2017-02-23T11:23:35.942Z,20
2017-02-23T11:24:35.958Z,20
2017-02-23T11:25:35.965Z,20
2017-02-23T11:26:35.918Z,20
2017-02-23T11:27:36.020Z,20
2017-02-23T11:28:35.988Z,20
2017-02-23T11:29:35.655Z,15
2017-02-23T11:30:35.939Z,20
2017-02-23T11:31:36.006Z,20
2017-02-23T11:32:36.084Z,20
2017-02-23T11:33:35.664Z,20
2017-02-23T11:34:36.062Z,20
2017-02-23T11:35:35.589Z,25
2017-02-23T11:36:36.083Z,20
2017-02-23T11:37:35.702Z,20
2017-02-23T11:38:36.049Z,20
2017-02-23T11:39:36.075Z,20
2017-02-23T11:40:36.050Z,20
2017-02-23T11:41:36.086Z,20
2017-02-23T11:42:36.098Z,20
2017-02-23T11:43:46.355Z,20
2017-02-23T11:44:36.044Z,20
2017-02-23T11:45:35.805Z,20
2017-02-23T11:46:35.712Z,15
2017-02-23T11:47:36.076Z,20
2017-02-23T11:48:36.139Z,20
2017-02-23T11:49:35.696Z,20
2017-02-23T11:50:36.299Z,20
2017-02-23T11:51:36.177Z,20
2017-02-23T11:52:36.152Z,20
2017-02-23T11:53:35.334Z,20
2017-02-23T11:54:36.133Z,25
2017-02-23T11:55:36.254Z,20
2017-02-23T11:56:35.753Z,20
2017-02-23T11:57:36.246Z,25
2017-02-23T11:58:35.958Z,25
2017-02-23T11:59:36.206Z,20
2017-02-23T12:00:35.831Z,25
2017-02-23T12:01:35.928Z,25
2017-02-23T12:02:36.240Z,20
2017-02-23T12:03:36.368Z,15
2017-02-23T12:04:36.392Z,15
2017-02-23T12:05:35.822Z,15
2017-02-23T12:06:36.289Z,15
2017-02-23T12:07:35.939Z,20
2017-02-23T12:08:36.282Z,15
2017-02-23T12:09:36.194Z,20
2017-02-23T12:10:35.890Z,25
2017-02-23T12:11:36.318Z,20
2017-02-23T12:12:36.259Z,25
2017-02-23T12:13:46.527Z,25
2017-02-23T12:14:36.413Z,30
2017-02-23T12:15:36.379Z,25
2017-02-23T12:16:36.454Z,30
2017-02-23T12:17:35.939Z,30
2017-02-23T12:18:36.007Z,30
2017-02-23T12:19:36.358Z,30
2017-02-23T12:20:36.501Z,25
2017-02-23T12:21:36.391Z,25
2017-02-23T12:22:35.965Z,20
2017-02-23T12:23:36.062Z,20
2017-02-23T12:24:36.489Z,25
2017-02-23T12:25:36.021Z,20
2017-02-23T12:26:36.023Z,15
2017-02-23T12:27:35.740Z,15
2017-02-23T12:28:36.474Z,20
2017-02-23T12:29:35.834Z,20
2017-02-23T12:30:36.406Z,25
2017-02-23T12:31:36.398Z,20
2017-02-23T12:32:36.107Z,20
2017-02-23T12:33:36.479Z,20
2017-02-23T12:34:36.475Z,25
2017-02-23T12:35:36.507Z,25
2017-02-23T12:36:36.490Z,25
2017-02-23T12:37:35.260Z,30
2017-02-23T12:38:36.512Z,20
2017-02-23T12:39:36.611Z,15
2017-02-23T12:40:35.792Z,15
2017-02-23T12:41:36.579Z,15
2017-02-23T12:42:36.185Z,10
2017-02-23T12:43:36.597Z,15
2017-02-23T12:44:36.097Z,15
2017-02-23T12:45:36.856Z,15
2017-02-23T12:46:36.605Z,15
2017-02-23T12:47:36.689Z,10
2017-02-23T12:48:36.189Z,10
2017-02-23T12:49:36.647Z,10
2017-02-23T12:50:36.554Z,10
2017-02-23T12:51:36.254Z,10
2017-02-23T12:52:36.718Z,5
2017-02-23T12:53:36.631Z,5
2017-02-23T12:54:36.669Z,10
2017-02-23T12:55:36.580Z,10
2017-02-23T12:56:36.755Z,5
2017-02-23T12:57:36.263Z,5
2017-02-23T12:58:36.718Z,5
2017-02-23T12:59:36.768Z,5
2017-02-23T13:00:36.772Z,5
2017-02-23T13:01:36.282Z,10
2017-02-23T13:02:36.289Z,10
2017-02-23T13:03:36.655Z,10
2017-02-23T13:04:36.300Z,10
2017-02-23T13:05:36.252Z,10
2017-02-23T13:06:36.810Z,10
2017-02-23T13:07:36.443Z,10
2017-02-23T13:08:36.750Z,10
2017-02-23T13:09:36.725Z,10
2017-02-23T13:10:36.737Z,10
2017-02-23T13:11:36.710Z,10
2017-02-23T13:12:36.709Z,10
2017-02-23T13:13:36.440Z,15
2017-02-23T13:14:36.780Z,20
2017-02-23T13:15:36.780Z,25
2017-02-23T13:16:36.791Z,20
2017-02-23T13:17:36.845Z,15
2017-02-23T13:18:36.415Z,15
2017-02-23T13:19:37.022Z,15
2017-02-23T13:20:36.882Z,10
2017-02-23T13:21:37.076Z,10
2017-02-23T13:22:36.840Z,10
2017-02-23T13:23:36.833Z,10
2017-02-23T13:24:36.972Z,10
2017-02-23T13:25:35.614Z,10
2017-02-23T13:26:36.462Z,10
2017-02-23T13:27:36.095Z,15
2017-02-23T13:28:36.471Z,20
2017-02-23T13:29:36.885Z,15
2017-02-23T13:30:36.114Z,10
2017-02-23T13:31:36.544Z,10
2017-02-23T13:32:37.019Z,15
2017-02-23T13:33:37.187Z,25
2017-02-23T13:34:36.873Z,20
2017-02-23T13:35:36.140Z,15
2017-02-23T13:36:36.997Z,15
2017-02-23T13:37:36.593Z,15
2017-02-23T13:38:36.534Z,10
2017-02-23T13:39:36.564Z,10
2017-02-23T13:40:36.958Z,10
2017-02-23T13:41:37.079Z,10
2017-02-23T13:42:36.604Z,10
2017-02-23T13:43:36.985Z,10
2017-02-23T13:44:37.065Z,5
2017-02-23T13:45:36.985Z,5
2017-02-23T13:46:37.073Z,10
2017-02-23T13:47:36.730Z,15
2017-02-23T13:48:37.419Z,15
2017-02-23T13:49:37.051Z,10
2017-02-23T13:50:37.062Z,10
2017-02-23T13:51:37.004Z,10
2017-02-23T13:52:36.734Z,10
2017-02-23T13:53:37.124Z,10
2017-02-23T13:54:36.685Z,10
2017-02-23T13:55:36.745Z,10
2017-02-23T13:56:36.756Z,15
2017-02-23T13:57:36.719Z,10
2017-02-23T13:58:37.866Z,5
2017-02-23T13:59:37.184Z,10
2017-02-23T14:00:36.673Z,15
2017-02-23T14:01:36.727Z,25
2017-02-23T14:02:37.159Z,25
2017-02-23T14:03:36.694Z,35
2017-02-23T14:04:36.833Z,40
2017-02-23T14:05:36.488Z,40
2017-02-23T14:06:37.122Z,45
2017-02-23T14:07:36.824Z,45
2017-02-23T14:08:37.206Z,35
2017-02-23T14:09:36.396Z,40
2017-02-23T14:10:36.813Z,40
2017-02-23T14:11:36.436Z,40
2017-02-23T14:12:37.160Z,40
2017-02-23T14:13:36.942Z,35
2017-02-23T14:14:36.837Z,35
2017-02-23T14:15:37.358Z,30
2017-02-23T14:16:36.113Z,30
2017-02-23T14:17:36.520Z,35
2017-02-23T14:18:36.827Z,35
2017-02-23T14:19:37.272Z,35
2017-02-23T14:20:37.322Z,40
2017-02-23T14:21:37.380Z,40
2017-02-23T14:22:36.849Z,35
2017-02-23T14:23:37.622Z,35
2017-02-23T14:24:37.052Z,35
2017-02-23T14:25:36.531Z,35
2017-02-23T14:26:36.922Z,40
2017-02-23T14:27:36.534Z,40
2017-02-23T14:28:37.327Z,45
2017-02-23T14:29:37.005Z,40
2017-02-23T14:30:37.359Z,35
2017-02-23T14:31:37.373Z,35
2017-02-23T14:32:36.935Z,35
2017-02-23T14:33:36.600Z,30
2017-02-23T14:34:36.980Z,30
2017-02-23T14:35:37.063Z,30
2017-02-23T14:36:36.567Z,30